sensor_id;sensor_type;location;lat;lon;timestamp;pressure;altitude;pressure_sealevel;temperature;humidity
39773;BME280;25451;51.960;6.250;2023-12-20T00:01:45;101300.22;;;7.67;89.25
39773;BME280;25451;51.960;6.250;2023-12-20T00:04:10;101349.63;;;7.93;89.22
39773;BME280;25451;51.960;6.250;2023-12-20T00:06:35;101352.78;;;7.90;89.19
39773;BME280;25451;51.960;6.250;2023-12-20T00:09:01;101344.13;;;7.80;89.16
39773;BME280;25451;51.960;6.250;2023-12-20T00:11:26;101322.19;;;7.67;88.77
39773;BME280;25451;51.960;6.250;2023-12-20T00:13:51;101341.19;;;7.75;89.01
39773;BME280;25451;51.960;6.250;2023-12-20T00:16:17;101329.81;;;7.65;89.09
39773;BME280;25451;51.960;6.250;2023-12-20T00:18:42;101314.16;;;7.59;89.03
39773;BME280;25451;51.960;6.250;2023-12-20T00:21:08;101299.81;;;7.44;88.82
39773;BME280;25451;51.960;6.250;2023-12-20T00:23:33;101247.44;;;7.13;88.60
39773;BME280;25451;51.960;6.250;2023-12-20T00:25:58;101337.41;;;7.57;88.73
39773;BME280;25451;51.960;6.250;2023-12-20T00:28:24;101352.63;;;7.59;88.83
39773;BME280;25451;51.960;6.250;2023-12-20T00:30:49;101348.63;;;7.55;88.83
39773;BME280;25451;51.960;6.250;2023-12-20T00:33:14;101329.38;;;7.42;88.84
39773;BME280;25451;51.960;6.250;2023-12-20T00:35:40;101317.34;;;7.43;88.92
39773;BME280;25451;51.960;6.250;2023-12-20T00:38:05;101329.38;;;7.42;88.74
39773;BME280;25451;51.960;6.250;2023-12-20T00:40:32;101321.81;;;7.31;88.73
39773;BME280;25451;51.960;6.250;2023-12-20T00:42:58;101341.63;;;7.39;88.83
39773;BME280;25451;51.960;6.250;2023-12-20T00:45:24;101298.97;;;7.11;89.24
39773;BME280;25451;51.960;6.250;2023-12-20T00:47:49;101331.06;;;7.23;89.03
39773;BME280;25451;51.960;6.250;2023-12-20T00:50:14;101325.16;;;7.20;88.75
39773;BME280;25451;51.960;6.250;2023-12-20T00:52:40;101338.69;;;7.28;89.07
39773;BME280;25451;51.960;6.250;2023-12-20T00:55:05;101326.84;;;7.14;89.07
39773;BME280;25451;51.960;6.250;2023-12-20T00:57:31;101340.38;;;7.22;89.22
39773;BME280;25451;51.960;6.250;2023-12-20T00:59:56;101316.91;;;7.07;88.56
39773;BME280;25451;51.960;6.250;2023-12-20T01:02:21;101322.84;;;7.04;89.03
39773;BME280;25451;51.960;6.250;2023-12-20T01:04:50;101314.59;;;6.97;88.90
39773;BME280;25451;51.960;6.250;2023-12-20T01:07:15;101315.03;;;6.94;88.51
39773;BME280;25451;51.960;6.250;2023-12-20T01:09:41;101320.06;;;6.97;88.78
39773;BME280;25451;51.960;6.250;2023-12-20T01:12:06;101310.56;;;6.87;88.47
39773;BME280;25451;51.960;6.250;2023-12-20T01:14:32;101323.44;;;6.93;88.38
39773;BME280;25451;51.960;6.250;2023-12-20T01:16:57;101296.00;;;6.80;89.02
39773;BME280;25451;51.960;6.250;2023-12-20T01:19:24;101331.47;;;7.01;88.81
39773;BME280;25451;51.960;6.250;2023-12-20T01:21:50;101326.19;;;6.93;88.79
39773;BME280;25451;51.960;6.250;2023-12-20T01:24:15;101340.34;;;6.96;88.46
39773;BME280;25451;51.960;6.250;2023-12-20T01:26:40;101311.81;;;6.78;88.50
39773;BME280;25451;51.960;6.250;2023-12-20T01:29:06;101305.25;;;6.72;88.73
39773;BME280;25451;51.960;6.250;2023-12-20T01:31:31;101339.47;;;6.89;88.51
39773;BME280;25451;51.960;6.250;2023-12-20T01:33:56;101306.94;;;6.73;88.62
39773;BME280;25451;51.960;6.250;2023-12-20T01:36:22;101264.88;;;6.40;88.93
39773;BME280;25451;51.960;6.250;2023-12-20T01:38:47;101295.94;;;6.53;88.21
39773;BME280;25451;51.960;6.250;2023-12-20T01:41:13;101342.41;;;6.81;88.63
39773;BME280;25451;51.960;6.250;2023-12-20T01:43:38;101264.66;;;6.35;88.25
39773;BME280;25451;51.960;6.250;2023-12-20T01:46:04;101289.16;;;6.43;88.46
39773;BME280;25451;51.960;6.250;2023-12-20T01:48:30;101289.16;;;6.43;88.31
39773;BME280;25451;51.960;6.250;2023-12-20T01:50:58;101336.91;;;6.75;88.14
39773;BME280;25451;51.960;6.250;2023-12-20T01:53:25;101335.22;;;6.74;88.00
39773;BME280;25451;51.960;6.250;2023-12-20T01:55:52;101279.84;;;6.37;88.55
39773;BME280;25451;51.960;6.250;2023-12-20T01:58:20;101330.97;;;6.64;88.39
39773;BME280;25451;51.960;6.250;2023-12-20T02:00:46;101305.63;;;6.49;88.09
39773;BME280;25451;51.960;6.250;2023-12-20T02:03:11;101332.66;;;6.59;88.43
39773;BME280;25451;51.960;6.250;2023-12-20T02:05:37;101278.97;;;6.24;88.13
39773;BME280;25451;51.960;6.250;2023-12-20T02:08:03;101340.66;;;6.60;88.08
39773;BME280;25451;51.960;6.250;2023-12-20T02:10:29;101342.13;;;6.56;88.38
39773;BME280;25451;51.960;6.250;2023-12-20T02:12:55;101298.56;;;6.27;88.62
39773;BME280;25451;51.960;6.250;2023-12-20T02:15:20;101346.78;;;6.56;88.28
39773;BME280;25451;51.960;6.250;2023-12-20T02:17:47;101322.25;;;6.41;88.06
39773;BME280;25451;51.960;6.250;2023-12-20T02:20:13;101324.59;;;6.44;88.32
39773;BME280;25451;51.960;6.250;2023-12-20T02:22:39;101316.56;;;6.36;88.73
39773;BME280;25451;51.960;6.250;2023-12-20T02:25:04;101352.69;;;6.53;88.52
39773;BME280;25451;51.960;6.250;2023-12-20T02:27:30;101310.22;;;6.36;88.39
39773;BME280;25451;51.960;6.250;2023-12-20T02:29:56;101330.94;;;6.45;87.94
39773;BME280;25451;51.960;6.250;2023-12-20T02:32:22;101347.41;;;6.51;88.07
39773;BME280;25451;51.960;6.250;2023-12-20T02:34:51;101340.66;;;6.47;88.61
39773;BME280;25451;51.960;6.250;2023-12-20T02:37:17;101334.50;;;6.39;88.30
39773;BME280;25451;51.960;6.250;2023-12-20T02:39:42;101341.06;;;6.51;88.14
39773;BME280;25451;51.960;6.250;2023-12-20T02:42:08;101293.72;;;6.29;88.01
39773;BME280;25451;51.960;6.250;2023-12-20T02:44:33;101311.06;;;6.36;88.07
39773;BME280;25451;51.960;6.250;2023-12-20T02:46:59;101319.09;;;6.44;88.15
39773;BME280;25451;51.960;6.250;2023-12-20T02:49:24;101294.19;;;6.33;88.53
39773;BME280;25451;51.960;6.250;2023-12-20T02:51:49;101317.41;;;6.43;88.12
39773;BME280;25451;51.960;6.250;2023-12-20T02:54:15;101180.72;;;5.67;88.18
39773;BME280;25451;51.960;6.250;2023-12-20T02:56:40;101275.16;;;6.18;88.13
39773;BME280;25451;51.960;6.250;2023-12-20T02:59:06;101328.81;;;6.47;88.40
39773;BME280;25451;51.960;6.250;2023-12-20T03:01:33;101315.72;;;6.42;87.92
39773;BME280;25451;51.960;6.250;2023-12-20T03:03:59;101317.00;;;6.46;88.11
39773;BME280;25451;51.960;6.250;2023-12-20T03:06:24;101289.97;;;6.30;88.14
39773;BME280;25451;51.960;6.250;2023-12-20T03:08:50;101301.16;;;6.42;88.15
39773;BME280;25451;51.960;6.250;2023-12-20T03:11:15;101247.94;;;6.10;88.19
39773;BME280;25451;51.960;6.250;2023-12-20T03:13:40;101280.03;;;6.29;88.09
39773;BME280;25451;51.960;6.250;2023-12-20T03:16:13;101264.00;;;6.26;87.89
39773;BME280;25451;51.960;6.250;2023-12-20T03:18:39;101285.13;;;6.39;88.28
39773;BME280;25451;51.960;6.250;2023-12-20T03:21:04;101280.28;;;6.41;88.49
39773;BME280;25451;51.960;6.250;2023-12-20T03:23:30;101252.41;;;6.24;88.06
39773;BME280;25451;51.960;6.250;2023-12-20T03:25:57;101276.28;;;6.37;88.02
39773;BME280;25451;51.960;6.250;2023-12-20T03:28:22;101292.31;;;6.46;87.86
39773;BME280;25451;51.960;6.250;2023-12-20T03:30:48;101279.22;;;6.42;88.47
39773;BME280;25451;51.960;6.250;2023-12-20T03:33:13;101288.94;;;6.44;88.24
39773;BME280;25451;51.960;6.250;2023-12-20T03:35:39;101261.25;;;6.26;88.08
39773;BME280;25451;51.960;6.250;2023-12-20T03:38:07;101295.06;;;6.46;87.84
39773;BME280;25451;51.960;6.250;2023-12-20T03:40:33;101266.31;;;6.29;88.04
39773;BME280;25451;51.960;6.250;2023-12-20T03:42:58;101284.06;;;6.40;88.29
39773;BME280;25451;51.960;6.250;2023-12-20T03:45:25;101242.28;;;6.25;87.92
39773;BME280;25451;51.960;6.250;2023-12-20T03:47:50;101280.72;;;6.44;88.19
39773;BME280;25451;51.960;6.250;2023-12-20T03:50:21;101277.75;;;6.39;87.99
39773;BME280;25451;51.960;6.250;2023-12-20T03:52:47;101261.72;;;6.36;87.84
39773;BME280;25451;51.960;6.250;2023-12-20T03:55:12;101233.41;;;6.16;88.00
39773;BME280;25451;51.960;6.250;2023-12-20T03:57:38;101261.66;;;6.23;87.94
39773;BME280;25451;51.960;6.250;2023-12-20T04:00:03;101280.28;;;6.41;87.94
39773;BME280;25451;51.960;6.250;2023-12-20T04:02:29;101263.81;;;6.34;88.21
39773;BME280;25451;51.960;6.250;2023-12-20T04:04:54;101293.38;;;6.39;88.15
39773;BME280;25451;51.960;6.250;2023-12-20T04:07:19;101292.50;;;6.38;87.86
39773;BME280;25451;51.960;6.250;2023-12-20T04:09:45;101297.13;;;6.38;88.41
39773;BME280;25451;51.960;6.250;2023-12-20T04:12:13;101262.09;;;6.20;88.28
39773;BME280;25451;51.960;6.250;2023-12-20T04:14:38;101273.91;;;6.27;88.03
39773;BME280;25451;51.960;6.250;2023-12-20T04:17:03;101277.94;;;6.25;88.39
39773;BME280;25451;51.960;6.250;2023-12-20T04:19:28;101278.97;;;6.24;88.26
39773;BME280;25451;51.960;6.250;2023-12-20T04:21:54;101265.88;;;6.19;87.96
39773;BME280;25451;51.960;6.250;2023-12-20T04:24:19;101269.69;;;6.25;88.24
39773;BME280;25451;51.960;6.250;2023-12-20T04:26:44;101289.09;;;6.30;88.11
39773;BME280;25451;51.960;6.250;2023-12-20T04:29:10;101288.69;;;6.26;88.05
39773;BME280;25451;51.960;6.250;2023-12-20T04:31:35;101284.44;;;6.24;88.29
39773;BME280;25451;51.960;6.250;2023-12-20T04:34:00;101279.56;;;6.19;87.80
39773;BME280;25451;51.960;6.250;2023-12-20T04:36:26;101288.25;;;6.29;88.42
39773;BME280;25451;51.960;6.250;2023-12-20T04:38:52;101241.38;;;6.05;87.97
39773;BME280;25451;51.960;6.250;2023-12-20T04:41:18;101249.59;;;6.11;88.36
39773;BME280;25451;51.960;6.250;2023-12-20T04:43:44;101267.56;;;6.20;87.74
39773;BME280;25451;51.960;6.250;2023-12-20T04:46:09;101262.50;;;6.17;88.20
39773;BME280;25451;51.960;6.250;2023-12-20T04:48:35;101282.16;;;6.34;88.59
39773;BME280;25451;51.960;6.250;2023-12-20T04:51:00;101277.28;;;6.29;88.32
39773;BME280;25451;51.960;6.250;2023-12-20T04:53:25;101265.25;;;6.24;87.70
39773;BME280;25451;51.960;6.250;2023-12-20T04:55:51;101218.59;;;5.98;87.92
39773;BME280;25451;51.960;6.250;2023-12-20T04:58:16;101239.94;;;6.15;88.34
39773;BME280;25451;51.960;6.250;2023-12-20T05:00:41;101249.41;;;6.19;87.94
39773;BME280;25451;51.960;6.250;2023-12-20T05:03:06;101246.03;;;6.17;88.44
39773;BME280;25451;51.960;6.250;2023-12-20T05:05:33;101261.66;;;6.23;87.92
39773;BME280;25451;51.960;6.250;2023-12-20T05:07:58;101256.19;;;6.23;88.14
39773;BME280;25451;51.960;6.250;2023-12-20T05:10:24;101238.06;;;6.22;88.19
39773;BME280;25451;51.960;6.250;2023-12-20T05:12:49;101276.28;;;6.43;87.97
39773;BME280;25451;51.960;6.250;2023-12-20T05:15:14;101221.78;;;6.08;87.83
39773;BME280;25451;51.960;6.250;2023-12-20T05:17:40;101126.53;;;5.56;87.50
39773;BME280;25451;51.960;6.250;2023-12-20T05:20:06;101264.66;;;6.41;87.73
39773;BME280;25451;51.960;6.250;2023-12-20T05:22:32;101236.81;;;6.31;88.04
39773;BME280;25451;51.960;6.250;2023-12-20T05:24:57;101212.31;;;6.23;88.15
39773;BME280;25451;51.960;6.250;2023-12-20T05:27:22;101127.47;;;5.76;87.67
39773;BME280;25451;51.960;6.250;2023-12-20T05:29:48;101225.44;;;6.34;87.96
39773;BME280;25451;51.960;6.250;2023-12-20T05:32:13;101225.88;;;6.38;88.15
39773;BME280;25451;51.960;6.250;2023-12-20T05:34:39;101233.44;;;6.36;88.49
39773;BME280;25451;51.960;6.250;2023-12-20T05:37:04;101205.59;;;6.26;88.36
39773;BME280;25451;51.960;6.250;2023-12-20T05:39:30;101230.50;;;6.37;88.06
39773;BME280;25451;51.960;6.250;2023-12-20T05:41:56;101210.88;;;6.27;88.20
39773;BME280;25451;51.960;6.250;2023-12-20T05:44:21;101225.03;;;6.44;88.59
39773;BME280;25451;51.960;6.250;2023-12-20T05:46:47;101189.56;;;6.16;88.09
39773;BME280;25451;51.960;6.250;2023-12-20T05:49:12;101255.66;;;6.60;87.67
39773;BME280;25451;51.960;6.250;2023-12-20T05:51:38;101241.50;;;6.50;87.84
39773;BME280;25451;51.960;6.250;2023-12-20T05:54:04;101246.16;;;6.56;87.88
39773;BME280;25451;51.960;6.250;2023-12-20T05:56:29;101227.78;;;6.44;88.26
39773;BME280;25451;51.960;6.250;2023-12-20T05:58:54;101263.03;;;6.66;88.51
39773;BME280;25451;51.960;6.250;2023-12-20T06:01:19;101240.66;;;6.50;87.93
39773;BME280;25451;51.960;6.250;2023-12-20T06:03:45;101241.28;;;6.52;87.96
39773;BME280;25451;51.960;6.250;2023-12-20T06:06:13;101237.09;;;6.49;87.68
39773;BME280;25451;51.960;6.250;2023-12-20T06:08:38;101277.81;;;6.72;88.03
39773;BME280;25451;51.960;6.250;2023-12-20T06:11:04;101244.03;;;6.58;88.11
39773;BME280;25451;51.960;6.250;2023-12-20T06:13:30;101272.78;;;6.76;88.00
39773;BME280;25451;51.960;6.250;2023-12-20T06:15:56;101264.31;;;6.70;88.17
39773;BME280;25451;51.960;6.250;2023-12-20T06:18:22;101274.88;;;6.74;88.11
39773;BME280;25451;51.960;6.250;2023-12-20T06:20:47;101256.31;;;6.69;88.15
39773;BME280;25451;51.960;6.250;2023-12-20T06:23:12;101239.00;;;6.55;88.03
39773;BME280;25451;51.960;6.250;2023-12-20T06:25:38;101252.72;;;6.68;88.11
39773;BME280;25451;51.960;6.250;2023-12-20T06:28:04;101272.97;;;6.81;87.70
39773;BME280;25451;51.960;6.250;2023-12-20T06:30:29;101261.59;;;6.77;87.77
39773;BME280;25451;51.960;6.250;2023-12-20T06:32:55;101241.34;;;6.72;88.13
39773;BME280;25451;51.960;6.250;2023-12-20T06:35:22;101244.28;;;6.77;88.19
39773;BME280;25451;51.960;6.250;2023-12-20T06:37:49;101195.31;;;6.54;87.83
39773;BME280;25451;51.960;6.250;2023-12-20T06:40:14;101256.75;;;6.92;87.84
39773;BME280;25451;51.960;6.250;2023-12-20T06:42:41;101243.66;;;6.81;87.92
39773;BME280;25451;51.960;6.250;2023-12-20T06:45:06;101244.06;;;6.85;87.66
39773;BME280;25451;51.960;6.250;2023-12-20T06:47:32;101237.97;;;6.89;87.69
39773;BME280;25451;51.960;6.250;2023-12-20T06:49:57;101219.59;;;6.77;87.80
39773;BME280;25451;51.960;6.250;2023-12-20T06:52:22;101230.13;;;6.86;88.12
39773;BME280;25451;51.960;6.250;2023-12-20T06:54:48;101227.59;;;6.85;88.02
39773;BME280;25451;51.960;6.250;2023-12-20T06:57:13;101228.47;;;6.85;88.12
39773;BME280;25451;51.960;6.250;2023-12-20T06:59:40;101251.69;;;7.02;88.26
39773;BME280;25451;51.960;6.250;2023-12-20T07:02:05;101229.72;;;6.89;88.20
39773;BME280;25451;51.960;6.250;2023-12-20T07:04:31;101237.34;;;6.94;87.88
39773;BME280;25451;51.960;6.250;2023-12-20T07:06:56;101231.41;;;6.97;87.97
39773;BME280;25451;51.960;6.250;2023-12-20T07:09:22;101253.78;;;7.07;87.94
39773;BME280;25451;51.960;6.250;2023-12-20T07:11:48;101239.44;;;7.05;87.82
39773;BME280;25451;51.960;6.250;2023-12-20T07:14:14;101218.13;;;6.94;88.19
39773;BME280;25451;51.960;6.250;2023-12-20T07:16:39;101222.53;;;6.95;88.10
39773;BME280;25451;51.960;6.250;2023-12-20T07:19:06;101236.91;;;7.03;87.99
39773;BME280;25451;51.960;6.250;2023-12-20T07:21:31;101255.03;;;7.11;87.99
39773;BME280;25451;51.960;6.250;2023-12-20T07:23:56;101234.56;;;7.07;88.31
39773;BME280;25451;51.960;6.250;2023-12-20T07:26:22;101245.78;;;7.12;88.20
39773;BME280;25451;51.960;6.250;2023-12-20T07:28:48;101191.75;;;6.80;88.11
39773;BME280;25451;51.960;6.250;2023-12-20T07:31:15;101205.88;;;6.90;88.17
39773;BME280;25451;51.960;6.250;2023-12-20T07:33:41;101098.91;;;6.24;87.86
39773;BME280;25451;51.960;6.250;2023-12-20T07:36:06;101245.34;;;7.15;88.41
39773;BME280;25451;51.960;6.250;2023-12-20T07:38:32;101256.94;;;7.17;87.90
39773;BME280;25451;51.960;6.250;2023-12-20T07:40:58;101124.22;;;6.39;88.01
39773;BME280;25451;51.960;6.250;2023-12-20T07:43:23;101117.91;;;6.45;87.75
39773;BME280;25451;51.960;6.250;2023-12-20T07:45:49;101093.44;;;6.24;88.13
39773;BME280;25451;51.960;6.250;2023-12-20T07:48:14;101133.94;;;6.55;87.94
39773;BME280;25451;51.960;6.250;2023-12-20T07:50:40;101188.78;;;6.81;88.19
39773;BME280;25451;51.960;6.250;2023-12-20T07:53:05;101197.88;;;6.88;87.88
39773;BME280;25451;51.960;6.250;2023-12-20T07:55:31;101240.69;;;7.15;88.39
39773;BME280;25451;51.960;6.250;2023-12-20T07:57:57;101194.69;;;6.85;88.10
39773;BME280;25451;51.960;6.250;2023-12-20T08:00:22;101156.72;;;6.68;88.00
39773;BME280;25451;51.960;6.250;2023-12-20T08:02:48;101184.16;;;6.82;87.96
39773;BME280;25451;51.960;6.250;2023-12-20T08:05:13;101203.97;;;6.97;88.08
39773;BME280;25451;51.960;6.250;2023-12-20T08:07:39;101240.06;;;7.13;88.14
39773;BME280;25451;51.960;6.250;2023-12-20T08:10:05;101158.19;;;6.64;87.78
39773;BME280;25451;51.960;6.250;2023-12-20T08:12:31;101207.78;;;6.89;87.99
39773;BME280;25451;51.960;6.250;2023-12-20T08:14:56;101138.38;;;6.49;88.18
39773;BME280;25451;51.960;6.250;2023-12-20T08:17:22;101210.13;;;6.92;88.17
39773;BME280;25451;51.960;6.250;2023-12-20T08:19:48;101256.09;;;7.23;88.16
39773;BME280;25451;51.960;6.250;2023-12-20T08:22:14;101226.34;;;7.07;87.95
39773;BME280;25451;51.960;6.250;2023-12-20T08:24:39;101191.09;;;6.91;88.49
39773;BME280;25451;51.960;6.250;2023-12-20T08:27:05;101163.25;;;6.74;88.02
39773;BME280;25451;51.960;6.250;2023-12-20T08:29:31;101228.03;;;7.08;88.32
39773;BME280;25451;51.960;6.250;2023-12-20T08:31:56;101199.75;;;7.01;88.25
39773;BME280;25451;51.960;6.250;2023-12-20T08:34:23;101226.13;;;7.15;88.01
39773;BME280;25451;51.960;6.250;2023-12-20T08:36:50;101187.50;;;6.97;87.91
39773;BME280;25451;51.960;6.250;2023-12-20T08:39:16;101201.22;;;7.03;87.99
39773;BME280;25451;51.960;6.250;2023-12-20T08:41:41;101223.38;;;7.15;88.06
39773;BME280;25451;51.960;6.250;2023-12-20T08:44:07;101185.84;;;7.02;88.01
39773;BME280;25451;51.960;6.250;2023-12-20T08:46:32;101106.94;;;6.58;87.92
39773;BME280;25451;51.960;6.250;2023-12-20T08:48:58;101141.28;;;6.81;88.24
39773;BME280;25451;51.960;6.250;2023-12-20T08:51:23;101178.22;;;7.04;88.23
39773;BME280;25451;51.960;6.250;2023-12-20T08:53:51;101195.50;;;7.18;87.83
39773;BME280;25451;51.960;6.250;2023-12-20T08:56:16;101114.53;;;6.69;88.01
39773;BME280;25451;51.960;6.250;2023-12-20T08:58:43;101101.03;;;6.61;87.66
39773;BME280;25451;51.960;6.250;2023-12-20T09:01:08;101134.31;;;6.85;88.28
39773;BME280;25451;51.960;6.250;2023-12-20T09:03:34;101131.81;;;6.83;87.93
39773;BME280;25451;51.960;6.250;2023-12-20T09:06:00;101185.38;;;7.18;87.96
39773;BME280;25451;51.960;6.250;2023-12-20T09:08:25;101103.13;;;6.72;87.49
39773;BME280;25451;51.960;6.250;2023-12-20T09:10:51;101190.19;;;7.23;87.90
39773;BME280;25451;51.960;6.250;2023-12-20T09:13:16;101186.41;;;7.17;88.23
39773;BME280;25451;51.960;6.250;2023-12-20T09:15:41;101231.78;;;7.46;87.98
39773;BME280;25451;51.960;6.250;2023-12-20T09:18:07;101198.88;;;7.26;87.79
39773;BME280;25451;51.960;6.250;2023-12-20T09:20:33;101196.13;;;7.20;87.74
39773;BME280;25451;51.960;6.250;2023-12-20T09:22:58;101191.50;;;7.14;87.92
39773;BME280;25451;51.960;6.250;2023-12-20T09:25:24;101109.44;;;6.73;87.50
39773;BME280;25451;51.960;6.250;2023-12-20T09:27:51;101151.41;;;7.00;88.21
39773;BME280;25451;51.960;6.250;2023-12-20T09:30:17;101166.56;;;7.15;88.12
39773;BME280;25451;51.960;6.250;2023-12-20T09:32:43;101099.53;;;6.72;87.77
39773;BME280;25451;51.960;6.250;2023-12-20T09:35:09;101168.69;;;7.13;87.97
39773;BME280;25451;51.960;6.250;2023-12-20T09:37:34;101180.72;;;7.19;88.06
39773;BME280;25451;51.960;6.250;2023-12-20T09:40:00;101176.06;;;7.13;87.62
39773;BME280;25451;51.960;6.250;2023-12-20T09:44:59;101194.22;;;7.27;88.17
39773;BME280;25451;51.960;6.250;2023-12-20T09:47:27;101157.94;;;7.05;88.02
39773;BME280;25451;51.960;6.250;2023-12-20T09:49:53;101243.16;;;7.56;87.61
39773;BME280;25451;51.960;6.250;2023-12-20T09:52:19;101195.06;;;7.21;88.30
39773;BME280;25451;51.960;6.250;2023-12-20T09:54:47;101112.41;;;6.72;88.10
39773;BME280;25451;51.960;6.250;2023-12-20T09:57:15;101260.28;;;7.58;87.93
39773;BME280;25451;51.960;6.250;2023-12-20T09:59:40;101255.84;;;7.57;88.04
39773;BME280;25451;51.960;6.250;2023-12-20T10:02:12;101196.78;;;7.22;88.13
39773;BME280;25451;51.960;6.250;2023-12-20T10:04:46;101153.94;;;7.01;88.07
39773;BME280;25451;51.960;6.250;2023-12-20T10:07:11;101115.34;;;6.77;88.10
39773;BME280;25451;51.960;6.250;2023-12-20T10:09:38;101118.53;;;6.74;87.87
39773;BME280;25451;51.960;6.250;2023-12-20T10:12:04;101207.75;;;7.35;88.18
39773;BME280;25451;51.960;6.250;2023-12-20T10:14:30;101119.75;;;6.84;87.88
39773;BME280;25451;51.960;6.250;2023-12-20T10:17:04;101249.06;;;7.60;87.89
39773;BME280;25451;51.960;6.250;2023-12-20T10:19:30;101164.69;;;7.03;88.01
39773;BME280;25451;51.960;6.250;2023-12-20T10:21:55;101208.16;;;7.38;88.24
39773;BME280;25451;51.960;6.250;2023-12-20T10:24:20;101190.41;;;7.28;88.03
39773;BME280;25451;51.960;6.250;2023-12-20T10:26:46;101128.22;;;6.83;88.28
39773;BME280;25451;51.960;6.250;2023-12-20T10:29:11;101222.72;;;7.39;88.39
39773;BME280;25451;51.960;6.250;2023-12-20T10:31:37;101269.38;;;7.65;88.17
39773;BME280;25451;51.960;6.250;2023-12-20T10:34:04;101202.66;;;7.32;88.05
39773;BME280;25451;51.960;6.250;2023-12-20T10:36:31;101239.16;;;7.52;88.25
39773;BME280;25451;51.960;6.250;2023-12-20T10:38:57;101250.53;;;7.69;87.99
39773;BME280;25451;51.960;6.250;2023-12-20T10:41:29;101222.91;;;7.57;88.00
39773;BME280;25451;51.960;6.250;2023-12-20T10:44:02;101128.38;;;7.07;88.15
39773;BME280;25451;51.960;6.250;2023-12-20T10:46:29;101175.19;;;7.38;88.26
39773;BME280;25451;51.960;6.250;2023-12-20T10:48:55;101123.72;;;7.14;88.52
39773;BME280;25451;51.960;6.250;2023-12-20T10:51:26;101114.44;;;7.09;88.28
39773;BME280;25451;51.960;6.250;2023-12-20T10:53:55;101133.19;;;7.25;88.24
39773;BME280;25451;51.960;6.250;2023-12-20T10:56:20;101171.75;;;7.49;88.13
39773;BME280;25451;51.960;6.250;2023-12-20T10:58:47;101215.81;;;7.87;87.97
39773;BME280;25451;51.960;6.250;2023-12-20T11:01:14;101122.81;;;7.27;88.57
39773;BME280;25451;51.960;6.250;2023-12-20T11:03:50;101114.81;;;7.32;88.48
39773;BME280;25451;51.960;6.250;2023-12-20T11:08:56;101082.34;;;7.09;88.12
39773;BME280;25451;51.960;6.250;2023-12-20T11:14:54;101098.31;;;7.32;87.89
39773;BME280;25451;51.960;6.250;2023-12-20T11:17:28;101144.28;;;7.56;88.21
39773;BME280;25451;51.960;6.250;2023-12-20T11:22:25;101202.44;;;7.97;88.30
39773;BME280;25451;51.960;6.250;2023-12-20T11:24:52;101204.53;;;8.02;88.32
39773;BME280;25451;51.960;6.250;2023-12-20T11:27:19;101158.78;;;7.76;88.27
39773;BME280;25451;51.960;6.250;2023-12-20T11:29:52;101157.69;;;7.84;88.27
39773;BME280;25451;51.960;6.250;2023-12-20T11:37:37;101111.66;;;7.73;87.99
39773;BME280;25451;51.960;6.250;2023-12-20T11:40:06;101117.13;;;7.79;88.01
39773;BME280;25451;51.960;6.250;2023-12-20T11:42:50;101157.97;;;8.07;88.36
39773;BME280;25451;51.960;6.250;2023-12-20T11:45:17;101127.84;;;7.94;88.21
39773;BME280;25451;51.960;6.250;2023-12-20T11:47:49;101118.34;;;7.90;88.28
39773;BME280;25451;51.960;6.250;2023-12-20T11:50:21;101127.59;;;8.02;88.28
39773;BME280;25451;51.960;6.250;2023-12-20T11:52:48;101147.34;;;8.17;88.40
39773;BME280;25451;51.960;6.250;2023-12-20T11:55:13;101176.09;;;8.27;88.30
39773;BME280;25451;51.960;6.250;2023-12-20T11:57:39;101127.16;;;7.98;88.46
39773;BME280;25451;51.960;6.250;2023-12-20T12:00:05;101130.97;;;7.97;88.15
39773;BME280;25451;51.960;6.250;2023-12-20T12:02:31;101176.69;;;8.29;88.45
39773;BME280;25451;51.960;6.250;2023-12-20T12:04:57;101097.03;;;7.85;88.27
39773;BME280;25451;51.960;6.250;2023-12-20T12:07:24;101116.84;;;7.94;88.35
39773;BME280;25451;51.960;6.250;2023-12-20T12:09:49;101048.78;;;7.58;88.32
39773;BME280;25451;51.960;6.250;2023-12-20T12:12:16;101115.34;;;7.98;88.63
39773;BME280;25451;51.960;6.250;2023-12-20T12:14:42;101125.38;;;8.10;88.58
39773;BME280;25451;51.960;6.250;2023-12-20T12:17:13;101106.63;;;8.01;88.41
39773;BME280;25451;51.960;6.250;2023-12-20T12:19:40;101158.47;;;8.35;88.25
39773;BME280;25451;51.960;6.250;2023-12-20T12:22:15;101151.53;;;8.32;88.60
39773;BME280;25451;51.960;6.250;2023-12-20T12:24:42;101147.69;;;8.33;88.64
39773;BME280;25451;51.960;6.250;2023-12-20T12:27:09;101041.72;;;7.75;88.49
39773;BME280;25451;51.960;6.250;2023-12-20T12:29:36;101022.53;;;7.62;88.49
39773;BME280;25451;51.960;6.250;2023-12-20T12:32:05;101089.03;;;8.08;88.41
39773;BME280;25451;51.960;6.250;2023-12-20T12:34:32;101088.22;;;8.08;88.44
39773;BME280;25451;51.960;6.250;2023-12-20T12:36:57;101004.59;;;7.60;88.35
39773;BME280;25451;51.960;6.250;2023-12-20T12:39:23;101071.50;;;8.09;88.70
39773;BME280;25451;51.960;6.250;2023-12-20T12:41:52;101001.34;;;7.76;88.51
39773;BME280;25451;51.960;6.250;2023-12-20T12:44:18;101048.25;;;8.05;88.65
39773;BME280;25451;51.960;6.250;2023-12-20T12:46:45;101122.41;;;8.50;88.73
39773;BME280;25451;51.960;6.250;2023-12-20T12:49:11;101071.59;;;8.21;88.64
39773;BME280;25451;51.960;6.250;2023-12-20T12:51:36;101062.72;;;8.25;88.46
39773;BME280;25451;51.960;6.250;2023-12-20T12:54:02;101081.66;;;8.40;88.48
39773;BME280;25451;51.960;6.250;2023-12-20T12:56:28;101025.19;;;8.06;88.40
39773;BME280;25451;51.960;6.250;2023-12-20T12:58:54;101067.78;;;8.28;88.37
39773;BME280;25451;51.960;6.250;2023-12-20T13:01:19;101101.00;;;8.52;88.53
39773;BME280;25451;51.960;6.250;2023-12-20T13:03:45;101043.72;;;8.17;88.27
39773;BME280;25451;51.960;6.250;2023-12-20T13:06:10;101102.41;;;8.61;88.54
39773;BME280;25451;51.960;6.250;2023-12-20T13:08:36;100975.88;;;7.87;88.27
39773;BME280;25451;51.960;6.250;2023-12-20T13:11:01;100976.06;;;7.92;88.56